createdAt,value
2022-10-19T00:00:22.942Z,102214.53
2022-10-19T00:02:49.149Z,102219.28
2022-10-19T00:05:15.439Z,102212.88
2022-10-19T00:07:41.702Z,102217.66
2022-10-19T00:10:08.072Z,102216.81
2022-10-19T00:12:34.607Z,102217.47
2022-10-19T00:15:01.037Z,102220.91
2022-10-19T00:17:27.558Z,102219.59
2022-10-19T00:19:53.844Z,102218.25
2022-10-19T00:22:20.482Z,102205.78
2022-10-19T00:24:46.952Z,102213.34
2022-10-19T00:27:13.308Z,102203.59
2022-10-19T00:29:39.682Z,102196.69
2022-10-19T00:32:05.977Z,102198.16
2022-10-19T00:34:32.426Z,102195.72
2022-10-19T00:36:58.843Z,102189.13
2022-10-19T00:39:25.277Z,102191.38
2022-10-19T00:41:51.707Z,102182.84
2022-10-19T00:44:17.980Z,102178.38
2022-10-19T00:46:45.760Z,102187.72
2022-10-19T00:49:12.065Z,102195.13
2022-10-19T00:51:43.950Z,102199.38
2022-10-19T00:54:10.715Z,102198.88
2022-10-19T00:56:38.903Z,102192.28
2022-10-19T00:59:05.961Z,102193.44
2022-10-19T01:01:32.833Z,102199.66
2022-10-19T01:03:59.558Z,102194.41
2022-10-19T01:06:26.655Z,102205.38
2022-10-19T01:08:53.107Z,102204.88
2022-10-19T01:11:40.888Z,102199.13
2022-10-19T01:14:22.230Z,102192.19
2022-10-19T01:17:00.744Z,102198.44
2022-10-19T01:19:36.665Z,102195.94
2022-10-19T01:22:15.076Z,102187.06
2022-10-19T01:24:50.730Z,102190.69
2022-10-19T01:27:23.073Z,102189.03
2022-10-19T01:29:49.324Z,102192.66
2022-10-19T01:32:36.170Z,102185.44
2022-10-19T01:35:28.668Z,102186.53
2022-10-19T01:38:15.933Z,102177.19
2022-10-19T01:40:47.168Z,102176.66
2022-10-19T01:43:20.163Z,102169.78
2022-10-19T01:45:50.325Z,102173.19
2022-10-19T01:48:23.002Z,102174.63
2022-10-19T01:50:53.901Z,102175.75
2022-10-19T01:53:20.881Z,102168.03
2022-10-19T01:55:50.188Z,102171.13
2022-10-19T01:58:17.959Z,102167.03
2022-10-19T02:00:46.395Z,102162.88
2022-10-19T02:03:13.289Z,102159.59
2022-10-19T02:05:40.693Z,102160.22
2022-10-19T02:08:11.047Z,102154.16
2022-10-19T02:10:38.278Z,102162.00
2022-10-19T02:13:05.134Z,102165.63
2022-10-19T02:15:33.440Z,102155.59
2022-10-19T02:18:00.789Z,102150.84
2022-10-19T02:20:28.085Z,102148.88
2022-10-19T02:22:54.576Z,102157.78
2022-10-19T02:25:21.335Z,102158.25
2022-10-19T02:27:48.249Z,102153.22
2022-10-19T02:30:15.742Z,102154.84
2022-10-19T02:32:42.746Z,102165.69
2022-10-19T02:35:09.877Z,102160.09
2022-10-19T02:40:07.835Z,102169.81
2022-10-19T02:42:36.377Z,102179.00
2022-10-19T02:45:09.471Z,102171.78
2022-10-19T02:47:38.667Z,102175.72
2022-10-19T02:50:05.787Z,102167.84
2022-10-19T02:52:32.067Z,102170.97
2022-10-19T02:54:59.379Z,102170.97
2022-10-19T02:57:26.829Z,102176.53
2022-10-19T02:59:53.281Z,102170.63
2022-10-19T03:02:20.296Z,102172.28
2022-10-19T03:07:19.504Z,102170.00
2022-10-19T03:09:45.984Z,102168.53
2022-10-19T03:12:12.868Z,102161.31
2022-10-19T03:14:39.547Z,102164.59
2022-10-19T03:17:05.970Z,102159.00
2022-10-19T03:19:32.765Z,102164.28
2022-10-19T03:21:59.041Z,102154.25
2022-10-19T03:24:25.302Z,102162.31
2022-10-19T03:26:51.675Z,102159.00
2022-10-19T03:29:17.990Z,102154.91
2022-10-19T03:31:44.220Z,102147.97
2022-10-19T03:34:10.636Z,102147.50
2022-10-19T03:36:39.318Z,102148.63
2022-10-19T03:39:07.937Z,102156.19
2022-10-19T03:41:35.876Z,102158.13
2022-10-19T03:44:02.243Z,102159.59
2022-10-19T03:46:28.752Z,102165.19
2022-10-19T03:48:55.216Z,102169.13
2022-10-19T03:51:25.863Z,102168.78
2022-10-19T03:53:57.638Z,102164.84
2022-10-19T03:56:24.990Z,102169.28
2022-10-19T03:58:51.738Z,102171.78
2022-10-19T04:01:22.668Z,102170.00
2022-10-19T04:03:52.877Z,102175.25
2022-10-19T04:06:22.061Z,102172.97
2022-10-19T04:08:49.016Z,102172.38
2022-10-19T04:11:15.559Z,102170.59
2022-10-19T04:13:42.067Z,102166.31
2022-10-19T04:16:09.657Z,102152.56
2022-10-19T04:18:35.952Z,102162.56
2022-10-19T04:21:03.391Z,102166.19
2022-10-19T04:23:30.917Z,102158.16
2022-10-19T04:26:01.128Z,102156.50
2022-10-19T04:28:27.528Z,102162.41
2022-10-19T04:30:53.931Z,102156.63
2022-10-19T04:33:20.215Z,102158.09
2022-10-19T04:35:46.531Z,102149.81
2022-10-19T04:38:12.870Z,102160.78
2022-10-19T04:40:39.156Z,102161.44
2022-10-19T04:43:05.806Z,102158.47
2022-10-19T04:45:35.067Z,102156.63
2022-10-19T04:48:02.189Z,102153.63
2022-10-19T04:50:28.502Z,102154.59
2022-10-19T04:52:54.962Z,102149.97
2022-10-19T04:55:21.435Z,102145.66
2022-10-19T04:57:47.767Z,102140.72
2022-10-19T05:00:14.706Z,102146.44
2022-10-19T05:02:47.821Z,102143.44
2022-10-19T05:05:14.501Z,102147.69
2022-10-19T05:07:41.057Z,102144.38
2022-10-19T05:10:08.198Z,102135.81
2022-10-19T05:12:34.907Z,102145.66
2022-10-19T05:15:01.229Z,102139.88
2022-10-19T05:17:29.803Z,102147.44
2022-10-19T05:19:56.112Z,102132.47
2022-10-19T05:22:22.327Z,102143.09
2022-10-19T05:24:48.547Z,102144.56
2022-10-19T05:27:15.146Z,102146.00
2022-10-19T05:29:41.444Z,102138.56
2022-10-19T05:32:07.723Z,102135.78
2022-10-19T05:34:33.999Z,102129.22
2022-10-19T05:37:00.957Z,102133.97
2022-10-19T05:39:27.395Z,102132.63
2022-10-19T05:41:53.606Z,102130.16
2022-10-19T05:44:20.733Z,102134.91
2022-10-19T05:46:47.364Z,102136.34
2022-10-19T05:49:14.625Z,102128.31
2022-10-19T05:51:40.928Z,102121.09
2022-10-19T05:54:08.260Z,102123.34
2022-10-19T05:56:34.711Z,102124.50
2022-10-19T05:59:04.059Z,102128.72
2022-10-19T06:01:31.024Z,102126.59
2022-10-19T06:03:58.084Z,102126.88
2022-10-19T06:06:25.144Z,102124.72
2022-10-19T06:08:52.819Z,102125.88
2022-10-19T06:11:25.623Z,102128.13
2022-10-19T06:13:54.758Z,102131.44
2022-10-19T06:16:22.787Z,102128.94
2022-10-19T06:18:49.126Z,102136.69
2022-10-19T06:21:19.628Z,102137.19
2022-10-19T06:23:50.112Z,102138.53
2022-10-19T06:26:16.440Z,102155.47
2022-10-19T06:28:43.606Z,102154.00
2022-10-19T06:31:10.630Z,102158.97
2022-10-19T06:33:37.322Z,102163.91
2022-10-19T06:36:06.573Z,102162.47
2022-10-19T06:38:32.854Z,102161.53
2022-10-19T06:40:59.427Z,102168.41
2022-10-19T06:43:25.835Z,102166.66
2022-10-19T06:45:52.294Z,102165.22
2022-10-19T06:48:18.543Z,102162.31
2022-10-19T06:50:44.863Z,102163.94
2022-10-19T06:53:11.623Z,102163.00
2022-10-19T06:55:38.169Z,102171.25
2022-10-19T06:58:04.598Z,102161.13
2022-10-19T07:00:31.399Z,102167.41
2022-10-19T07:03:00.989Z,102166.44
2022-10-19T07:05:27.498Z,102162.38
2022-10-19T07:07:53.807Z,102158.31
2022-10-19T07:10:20.365Z,102169.06
2022-10-19T07:12:46.653Z,102166.13
2022-10-19T07:15:13.113Z,102161.25
2022-10-19T07:17:39.398Z,102158.31
2022-10-19T07:20:05.967Z,102160.97
2022-10-19T07:22:32.281Z,102154.47
2022-10-19T07:24:58.973Z,102160.75
2022-10-19T07:27:25.241Z,102153.38
2022-10-19T07:29:51.477Z,102154.41
2022-10-19T07:32:17.707Z,102155.41
2022-10-19T07:34:44.135Z,102163.97
2022-10-19T07:37:10.409Z,102163.63
2022-10-19T07:39:36.716Z,102152.16
2022-10-19T07:42:03.193Z,102161.03
2022-10-19T07:44:32.074Z,102151.50
2022-10-19T07:46:58.454Z,102164.00
2022-10-19T07:49:24.917Z,102161.38
2022-10-19T07:51:54.279Z,102161.56
2022-10-19T07:54:21.389Z,102164.22
2022-10-19T07:56:47.836Z,102155.69
2022-10-19T07:59:16.191Z,102157.19
2022-10-19T08:01:43.965Z,102152.28
2022-10-19T08:06:56.643Z,102156.94
2022-10-19T08:09:47.753Z,102157.28
2022-10-19T08:12:14.632Z,102154.84
2022-10-19T08:14:41.594Z,102154.88
2022-10-19T08:17:11.430Z,102154.88
2022-10-19T08:19:41.348Z,102162.44
2022-10-19T08:22:09.135Z,102160.03
2022-10-19T08:24:38.001Z,102163.16
2022-10-19T08:27:04.282Z,102162.00
2022-10-19T08:29:31.604Z,102166.78
2022-10-19T08:31:59.760Z,102165.97
2022-10-19T08:34:26.189Z,102160.03
2022-10-19T08:36:52.413Z,102158.53
2022-10-19T08:39:18.835Z,102159.00
2022-10-19T08:42:03.663Z,102153.06
2022-10-19T08:44:42.227Z,102148.75
2022-10-19T08:47:14.117Z,102148.06
2022-10-19T08:49:41.232Z,102157.28
2022-10-19T08:52:12.700Z,102154.13
2022-10-19T08:54:59.484Z,102161.84
2022-10-19T08:57:40.642Z,102159.47
2022-10-19T09:00:26.378Z,102161.88
2022-10-19T09:03:13.035Z,102155.06
2022-10-19T09:05:39.345Z,102166.38
2022-10-19T09:08:08.026Z,102155.91
2022-10-19T09:10:35.702Z,102159.50
2022-10-19T09:13:05.302Z,102149.84
2022-10-19T09:15:34.404Z,102151.47
2022-10-19T09:18:01.388Z,102156.66
2022-10-19T09:20:36.877Z,102143.38
2022-10-19T09:23:13.206Z,102148.91
2022-10-19T09:25:41.518Z,102140.06
2022-10-19T09:28:31.566Z,102134.72
2022-10-19T09:31:05.907Z,102137.44
2022-10-19T09:33:35.504Z,102124.00
2022-10-19T09:36:03.231Z,102126.69
2022-10-19T09:38:31.588Z,102124.50
2022-10-19T09:40:58.951Z,102124.28
2022-10-19T09:43:27.130Z,102113.66
2022-10-19T09:46:02.433Z,102123.03
2022-10-19T09:48:32.013Z,102125.28
2022-10-19T09:50:59.719Z,102122.09
2022-10-19T09:53:26.787Z,102116.97
2022-10-19T09:56:00.340Z,102113.13
2022-10-19T09:58:32.100Z,102118.84
2022-10-19T10:01:00.085Z,102116.50
2022-10-19T10:03:26.547Z,102113.81
2022-10-19T10:05:53.305Z,102103.16
2022-10-19T10:08:24.769Z,102104.09
2022-10-19T10:10:58.051Z,102097.44
2022-10-19T10:13:25.593Z,102093.53
2022-10-19T10:15:56.199Z,102093.19
2022-10-19T10:18:23.910Z,102078.53
2022-10-19T10:21:01.400Z,102094.00
2022-10-19T10:23:30.981Z,102079.69
2022-10-19T10:25:58.544Z,102081.81
2022-10-19T10:28:26.583Z,102079.56
2022-10-19T10:30:54.694Z,102084.59
2022-10-19T10:33:40.346Z,102080.34
2022-10-19T10:36:11.407Z,102082.22
2022-10-19T10:38:46.363Z,102087.72
2022-10-19T10:41:17.829Z,102074.22
2022-10-19T10:44:13.320Z,102073.16
2022-10-19T10:46:51.989Z,102075.25
2022-10-19T10:49:23.062Z,102068.09
2022-10-19T10:51:53.154Z,102067.00
2022-10-19T10:54:27.102Z,102055.84
2022-10-19T10:57:05.651Z,102059.56
2022-10-19T10:59:36.862Z,102059.78
2022-10-19T11:02:14.214Z,102053.91
2022-10-19T11:04:47.436Z,102056.78
2022-10-19T11:07:24.224Z,102046.53
2022-10-19T11:09:56.827Z,102045.91
2022-10-19T11:12:35.951Z,102042.38
2022-10-19T11:15:20.928Z,102034.38
2022-10-19T11:18:07.515Z,102027.22
2022-10-19T11:20:35.823Z,102022.84
2022-10-19T11:23:07.559Z,102013.22
2022-10-19T11:25:45.723Z,102007.66
2022-10-19T11:28:11.990Z,101994.84
2022-10-19T11:30:50.548Z,101996.16
2022-10-19T11:33:32.833Z,101991.06
2022-10-19T11:36:03.793Z,101982.34
2022-10-19T11:38:36.050Z,101980.06
2022-10-19T11:41:17.248Z,101970.50
2022-10-19T11:43:44.280Z,101975.84
2022-10-19T11:46:10.687Z,101977.97
2022-10-19T11:48:54.798Z,101960.28
2022-10-19T11:51:22.155Z,101964.72
2022-10-19T11:53:48.741Z,101959.56
2022-10-19T11:56:19.807Z,101967.66
2022-10-19T12:01:50.612Z,101960.81
2022-10-19T12:04:16.900Z,101953.56
2022-10-19T12:06:49.447Z,101960.47
2022-10-19T12:09:22.589Z,101963.72
2022-10-19T12:12:07.016Z,101955.72
2022-10-19T12:14:37.041Z,101948.53
2022-10-19T12:17:09.925Z,101951.34
2022-10-19T12:19:42.455Z,101952.63
2022-10-19T12:22:13.627Z,101948.16
2022-10-19T12:24:40.083Z,101939.69
2022-10-19T12:27:07.049Z,101929.59
2022-10-19T12:29:35.836Z,101930.78
2022-10-19T12:32:03.058Z,101932.41
2022-10-19T12:34:47.155Z,101919.50
2022-10-19T12:37:22.804Z,101915.88
2022-10-19T12:40:08.679Z,101901.78
2022-10-19T12:42:43.913Z,101905.03
2022-10-19T12:45:25.199Z,101898.22
2022-10-19T12:48:11.076Z,101890.22
2022-10-19T12:50:49.629Z,101890.22
2022-10-19T12:53:36.265Z,101893.03
2022-10-19T12:56:02.613Z,101882.13
2022-10-19T12:58:32.580Z,101884.97
2022-10-19T13:00:59.743Z,101879.31
2022-10-19T13:03:30.652Z,101883.75
2022-10-19T13:06:02.084Z,101874.50
2022-10-19T13:08:30.618Z,101863.22
2022-10-19T13:11:03.702Z,101858.00
2022-10-19T13:13:50.867Z,101856.81
2022-10-19T13:16:29.663Z,101854.00
2022-10-19T13:19:01.858Z,101859.72
2022-10-19T13:21:47.274Z,101851.34
2022-10-19T13:24:25.406Z,101854.16
2022-10-19T13:27:10.582Z,101847.75
2022-10-19T13:29:36.816Z,101839.75
2022-10-19T13:32:22.015Z,101835.75
2022-10-19T13:34:48.739Z,101832.53
2022-10-19T13:37:17.310Z,101831.38
2022-10-19T13:39:43.712Z,101830.53
2022-10-19T13:42:23.883Z,101827.72
2022-10-19T13:44:52.954Z,101824.47
2022-10-19T13:47:39.802Z,101815.09
2022-10-19T13:50:07.059Z,101814.69
2022-10-19T13:52:52.252Z,101814.28
2022-10-19T13:55:24.725Z,101813.09
2022-10-19T13:58:14.318Z,101809.13
2022-10-19T14:01:01.255Z,101804.72
2022-10-19T14:03:46.247Z,101797.88
2022-10-19T14:06:15.716Z,101805.16
2022-10-19T14:09:01.186Z,101797.88
2022-10-19T14:11:31.237Z,101801.47
2022-10-19T14:14:13.014Z,101796.63
2022-10-19T14:16:50.918Z,101791.34
2022-10-19T14:19:28.852Z,101790.91
2022-10-19T14:21:56.769Z,101782.38
2022-10-19T14:24:31.926Z,101791.97
2022-10-19T14:27:05.954Z,101781.38
2022-10-19T14:29:35.512Z,101775.66
2022-10-19T14:32:02.402Z,101773.97
2022-10-19T14:34:28.697Z,101780.34
2022-10-19T14:36:55.778Z,101778.66
2022-10-19T14:39:24.144Z,101773.38
2022-10-19T14:41:54.763Z,101774.47
2022-10-19T14:44:34.722Z,101769.59
2022-10-19T14:47:01.910Z,101776.34
2022-10-19T14:49:28.514Z,101768.19
2022-10-19T14:51:59.166Z,101756.84
2022-10-19T14:54:36.378Z,101757.97
2022-10-19T14:57:08.946Z,101759.50
2022-10-19T14:59:37.604Z,101772.31
2022-10-19T15:02:11.990Z,101760.16
2022-10-19T15:04:39.191Z,101750.78
2022-10-19T15:07:19.786Z,101751.09
2022-10-19T15:09:54.448Z,101740.13
2022-10-19T15:12:23.525Z,101747.66
2022-10-19T15:14:49.796Z,101744.72
2022-10-19T15:17:24.412Z,101740.28
2022-10-19T15:19:51.296Z,101743.81
2022-10-19T15:22:19.986Z,101735.28
2022-10-19T15:24:55.763Z,101735.56
2022-10-19T15:27:22.954Z,101735.50
2022-10-19T15:30:00.282Z,101733.78
2022-10-19T15:32:31.874Z,101737.31
2022-10-19T15:34:58.671Z,101730.78
2022-10-19T15:39:53.494Z,101728.19
2022-10-19T15:42:40.756Z,101726.47
2022-10-19T15:45:25.833Z,101725.94
2022-10-19T15:48:10.911Z,101721.78
2022-10-19T15:50:40.182Z,101722.03
2022-10-19T15:53:07.866Z,101723.94
2022-10-19T15:55:34.558Z,101724.19
2022-10-19T15:58:01.156Z,101719.28
2022-10-19T16:00:28.723Z,101718.38
2022-10-19T16:02:54.999Z,101717.84
2022-10-19T16:05:21.580Z,101716.94
2022-10-19T16:07:47.850Z,101717.59
2022-10-19T16:10:18.716Z,101704.16
2022-10-19T16:12:45.071Z,101698.81
2022-10-19T16:15:17.534Z,101695.00
2022-10-19T16:17:47.789Z,101694.00
2022-10-19T16:20:14.168Z,101690.63
2022-10-19T16:22:40.622Z,101692.06
2022-10-19T16:25:07.062Z,101696.72
2022-10-19T16:27:33.989Z,101697.31
2022-10-19T16:30:00.651Z,101693.91
2022-10-19T16:32:27.290Z,101679.75
2022-10-19T16:34:54.531Z,101684.03
2022-10-19T16:37:20.772Z,101678.28
2022-10-19T16:39:47.214Z,101683.34
2022-10-19T16:42:14.941Z,101676.38
2022-10-19T16:44:41.158Z,101687.50
2022-10-19T16:47:07.757Z,101680.97
2022-10-19T16:49:33.964Z,101683.22
2022-10-19T16:52:01.709Z,101684.28
2022-10-19T16:54:30.064Z,101679.72
2022-10-19T16:56:56.322Z,101676.47
2022-10-19T16:59:22.551Z,101678.34
2022-10-19T17:01:48.858Z,101685.03
2022-10-19T17:04:17.880Z,101677.31
2022-10-19T17:06:46.985Z,101674.41
2022-10-19T17:09:37.030Z,101669.88
2022-10-19T17:12:00.007Z,101667.75
2022-10-19T17:14:26.295Z,101656.09
2022-10-19T17:16:52.574Z,101649.56
2022-10-19T17:19:19.211Z,101643.81
2022-10-19T17:21:45.594Z,101632.50
2022-10-19T17:24:20.375Z,101631.56
2022-10-19T17:26:48.042Z,101626.97
2022-10-19T17:29:14.316Z,101629.34
2022-10-19T17:31:41.642Z,101623.97
2022-10-19T17:34:09.119Z,101624.34
2022-10-19T17:39:17.426Z,101621.78
2022-10-19T17:41:44.797Z,101620.84
2022-10-19T17:44:11.290Z,101628.44
2022-10-19T17:46:40.088Z,101625.97
2022-10-19T17:49:06.405Z,101621.91
2022-10-19T17:51:33.832Z,101625.06
2022-10-19T17:54:01.946Z,101627.38
2022-10-19T17:56:28.649Z,101624.94
2022-10-19T17:58:55.892Z,101634.06
2022-10-19T18:01:22.287Z,101632.44
2022-10-19T18:03:48.909Z,101635.59
2022-10-19T18:06:16.854Z,101638.72
2022-10-19T18:08:44.854Z,101644.69
2022-10-19T18:11:12.590Z,101638.97
2022-10-19T18:13:39.548Z,101638.16
2022-10-19T18:16:11.956Z,101631.28
2022-10-19T18:18:38.946Z,101643.19
2022-10-19T18:21:10.929Z,101640.25
2022-10-19T18:23:37.792Z,101643.78
2022-10-19T18:26:05.979Z,101635.69
2022-10-19T18:28:32.468Z,101628.00
2022-10-19T18:31:14.939Z,101634.75
2022-10-19T18:33:41.279Z,101637.91
2022-10-19T18:36:09.869Z,101634.66
2022-10-19T18:38:36.254Z,101644.56
2022-10-19T18:41:06.304Z,101642.13
2022-10-19T18:43:34.095Z,101632.41
2022-10-19T18:46:00.801Z,101636.41
2022-10-19T18:48:28.096Z,101628.34
2022-10-19T18:50:54.963Z,101630.66
2022-10-19T18:53:22.479Z,101631.84
2022-10-19T18:55:58.991Z,101635.00
2022-10-19T18:58:26.364Z,101628.09
2022-10-19T19:01:02.147Z,101628.44
2022-10-19T19:03:28.362Z,101622.03
2022-10-19T19:05:54.619Z,101620.41
2022-10-19T19:08:20.885Z,101611.88
2022-10-19T19:10:47.113Z,101608.63
2022-10-19T19:13:13.734Z,101609.75
2022-10-19T19:15:40.510Z,101604.06
2022-10-19T19:18:06.836Z,101609.19
2022-10-19T19:20:33.060Z,101606.72
2022-10-19T19:22:59.327Z,101599.84
2022-10-19T19:25:25.577Z,101599.34
2022-10-19T19:27:52.870Z,101603.66
2022-10-19T19:30:20.418Z,101590.69
2022-10-19T19:32:46.888Z,101584.63
2022-10-19T19:35:13.166Z,101580.53
2022-10-19T19:37:39.416Z,101575.63
2022-10-19T19:40:06.003Z,101571.09
2022-10-19T19:42:32.253Z,101573.41
2022-10-19T19:44:58.511Z,101569.31
2022-10-19T19:47:26.076Z,101570.38
2022-10-19T19:49:52.506Z,101566.25
2022-10-19T19:52:18.752Z,101562.56
2022-10-19T19:54:44.996Z,101561.25
2022-10-19T19:57:11.443Z,101555.50
2022-10-19T19:59:37.695Z,101550.13
2022-10-19T20:02:04.163Z,101547.25
2022-10-19T20:04:30.427Z,101546.28
2022-10-19T20:06:56.716Z,101548.97
2022-10-19T20:09:23.032Z,101553.25
2022-10-19T20:11:49.311Z,101535.53
2022-10-19T20:14:15.559Z,101530.63
2022-10-19T20:16:41.793Z,101528.50
2022-10-19T20:19:12.800Z,101520.00
2022-10-19T20:21:39.798Z,101533.88
2022-10-19T20:24:06.279Z,101546.91
2022-10-19T20:26:32.779Z,101538.38
2022-10-19T20:29:00.781Z,101534.28
2022-10-19T20:33:58.361Z,101535.69
2022-10-19T20:36:25.409Z,101527.97
2022-10-19T20:38:56.091Z,101531.44
2022-10-19T20:41:23.542Z,101541.00
2022-10-19T20:43:50.220Z,101528.84
2022-10-19T20:46:17.939Z,101532.31
2022-10-19T20:48:44.950Z,101539.84
2022-10-19T20:51:12.916Z,101535.78
2022-10-19T20:53:39.302Z,101528.56
2022-10-19T20:56:09.385Z,101519.69
2022-10-19T20:58:38.744Z,101524.81
2022-10-19T21:01:11.866Z,101526.31
2022-10-19T21:03:38.726Z,101519.75
2022-10-19T21:06:06.024Z,101519.28
2022-10-19T21:08:33.210Z,101507.97
2022-10-19T21:10:59.531Z,101493.88
2022-10-19T21:13:26.060Z,101497.34
2022-10-19T21:15:52.409Z,101489.63
2022-10-19T21:18:18.925Z,101486.38
2022-10-19T21:20:45.214Z,101484.25
2022-10-19T21:23:12.258Z,101486.59
2022-10-19T21:25:38.500Z,101481.66
2022-10-19T21:28:04.852Z,101479.56
2022-10-19T21:30:31.116Z,101477.09
2022-10-19T21:32:57.356Z,101474.19
2022-10-19T21:35:23.597Z,101471.72
2022-10-19T21:37:49.871Z,101469.63
2022-10-19T21:40:16.234Z,101470.75
2022-10-19T21:42:42.490Z,101473.09
2022-10-19T21:45:29.302Z,101465.06
2022-10-19T21:47:55.469Z,101471.31
2022-10-19T21:50:21.735Z,101468.06
2022-10-19T21:52:48.012Z,101466.75
2022-10-19T21:55:14.297Z,101469.88
2022-10-19T21:57:40.713Z,101454.31
2022-10-19T22:00:07.124Z,101453.81
2022-10-19T22:02:33.538Z,101449.72
2022-10-19T22:04:59.895Z,101447.75
2022-10-19T22:07:26.310Z,101444.47
2022-10-19T22:09:52.964Z,101447.25
2022-10-19T22:12:19.397Z,101442.03
2022-10-19T22:14:45.819Z,101449.25
2022-10-19T22:17:12.088Z,101433.66
2022-10-19T22:19:38.297Z,101432.03
2022-10-19T22:22:04.685Z,101422.00
2022-10-19T22:24:31.117Z,101418.72
2022-10-19T22:26:57.403Z,101412.69
2022-10-19T22:29:23.834Z,101403.81
2022-10-19T22:31:50.122Z,101403.34
2022-10-19T22:34:17.474Z,101395.31
2022-10-19T22:36:44.324Z,101391.56
2022-10-19T22:39:10.808Z,101385.50
2022-10-19T22:41:37.099Z,101391.41
2022-10-19T22:44:03.378Z,101379.31
2022-10-19T22:46:29.910Z,101377.19
2022-10-19T22:48:56.192Z,101372.28
2022-10-19T22:51:22.582Z,101371.47
2022-10-19T22:53:48.819Z,101370.97
2022-10-19T22:56:15.083Z,101368.88
2022-10-19T22:58:41.362Z,101368.06
2022-10-19T23:01:11.657Z,101363.63
2022-10-19T23:03:41.209Z,101373.66
2022-10-19T23:06:08.533Z,101369.56
2022-10-19T23:08:35.062Z,101369.56
2022-10-19T23:11:01.331Z,101369.56
2022-10-19T23:13:27.941Z,101368.75
2022-10-19T23:15:54.378Z,101364.78
2022-10-19T23:18:20.863Z,101360.38
2022-10-19T23:20:54.033Z,101361.50
2022-10-19T23:23:20.344Z,101354.78
2022-10-19T23:25:56.340Z,101357.56
2022-10-19T23:28:22.602Z,101353.44
2022-10-19T23:30:50.190Z,101352.63
2022-10-19T23:33:16.770Z,101347.41
2022-10-19T23:35:43.178Z,101349.38
2022-10-19T23:38:09.400Z,101345.78
2022-10-19T23:40:36.988Z,101340.84
2022-10-19T23:43:03.418Z,101342.84
2022-10-19T23:45:29.820Z,101337.59
2022-10-19T23:47:56.071Z,101331.53
2022-10-19T23:50:22.327Z,101327.09
2022-10-19T23:52:48.638Z,101320.72
2022-10-19T23:55:14.900Z,101328.28
2022-10-19T23:57:41.119Z,101325.47
